Time;durP1;ratioP1;P1;durP2;ratioP2;P2;SDS_P1;SDS_P2;PMS_P1;PMS_P2;Temp;Humidity;BMP_temperature;BMP_pressure;BME280_temperature;BME280_humidity;BME280_pressure;Samples;Min_cycle;Max_cycle;Signal;HPM_P1;HPM_P2
2021/12/07 00:02:10;;;;;;;;;;;21.00;36.80;;;;;;5119401;27;19919;-83
2021/12/07 00:04:36;;;;;;;;;;;21.20;34.90;;;;;;5135618;27;19919;-82
2021/12/07 00:07:05;;;;;;;;;;;21.50;34.50;;;;;;5118305;27;19907;-81
2021/12/07 00:09:30;;;;;;;;;;;21.70;34.10;;;;;;5119323;27;19999;-80
2021/12/07 00:11:56;;;;;;;;;;;21.80;34.00;;;;;;5135747;27;19998;-83
2021/12/07 00:14:25;;;;;;;;;;;21.90;33.90;;;;;;5135973;27;20310;-81
2021/12/07 00:16:54;;;;;;;;;;;22.10;33.90;;;;;;5135876;27;20404;-78
2021/12/07 00:19:22;;;;;;;;;;;22.10;33.90;;;;;;5135442;27;19914;-82
2021/12/07 00:21:48;;;;;;;;;;;22.30;34.00;;;;;;5135610;27;20232;-82
2021/12/07 00:24:13;;;;;;;;;;;22.40;34.00;;;;;;5135564;27;19908;-85
2021/12/07 00:26:39;;;;;;;;;;;22.50;34.00;;;;;;5135766;27;19908;-80
2021/12/07 00:29:07;;;;;;;;;;;22.50;34.00;;;;;;5118150;28;19938;-83
2021/12/07 00:31:42;;;;;;;;;;;22.50;34.10;;;;;;5135538;28;19922;-82
2021/12/07 00:36:44;;;;;;;;;;;22.60;34.20;;;;;;5135662;28;20351;-81
2021/12/07 00:39:12;;;;;;;;;;;22.70;34.30;;;;;;5135509;28;20319;-81
2021/12/07 00:41:37;;;;;;;;;;;22.70;34.30;;;;;;5135189;28;20336;-80
2021/12/07 00:44:03;;;;;;;;;;;22.80;34.40;;;;;;5135198;28;19919;-80
2021/12/07 00:46:32;;;;;;;;;;;22.80;34.40;;;;;;5117977;28;19907;-83
2021/12/07 00:48:57;;;;;;;;;;;22.80;34.50;;;;;;5118470;27;19911;-80
2021/12/07 00:51:25;;;;;;;;;;;22.80;34.50;;;;;;5139419;27;19964;-82
2021/12/07 00:53:51;;;;;;;;;;;22.80;34.50;;;;;;5139166;27;19907;-83
2021/12/07 00:56:19;;;;;;;;;;;22.80;34.60;;;;;;5122214;27;19907;-80
2021/12/07 00:58:45;;;;;;;;;;;22.90;34.70;;;;;;5138859;27;20314;-85
2021/12/07 01:01:13;;;;;;;;;;;22.90;34.70;;;;;;5121752;27;19946;-84
2021/12/07 01:03:39;;;;;;;;;;;22.90;34.90;;;;;;5121885;27;19907;-81
2021/12/07 01:06:21;;;;;;;;;;;22.90;34.80;;;;;;5122085;27;19919;-83
2021/12/07 01:25:03;;;;;;;;;;;22.90;35.20;;;;;;5142035;27;19940;-82
2021/12/07 01:27:30;;;;;;;;;;;22.90;35.30;;;;;;5139850;27;19994;-81
2021/12/07 01:30:13;;;;;;;;;;;23.00;35.40;;;;;;5138775;27;19911;-80
2021/12/07 01:32:59;;;;;;;;;;;22.90;35.40;;;;;;5123643;27;19908;-81
2021/12/07 02:01:58;;;;;;;;;;;22.90;36.00;;;;;;5138209;27;19934;-84
2021/12/07 02:04:24;;;;;;;;;;;22.80;36.00;;;;;;5137991;27;19930;-83
2021/12/07 02:06:49;;;;;;;;;;;22.90;36.00;;;;;;5138042;27;20345;-84
2021/12/07 02:09:15;;;;;;;;;;;22.90;36.00;;;;;;5137933;27;19922;-84
2021/12/07 02:11:46;;;;;;;;;;;22.90;36.10;;;;;;5138188;27;19978;-80
2021/12/07 02:14:16;;;;;;;;;;;22.90;36.10;;;;;;5121531;27;20336;-84
2021/12/07 02:16:48;;;;;;;;;;;22.90;36.10;;;;;;5137776;27;20002;-82
2021/12/07 02:19:16;;;;;;;;;;;22.90;36.10;;;;;;5138657;27;20258;-82
2021/12/07 02:21:44;;;;;;;;;;;22.80;36.20;;;;;;5137789;27;19956;-83
2021/12/07 02:24:10;;;;;;;;;;;22.80;36.20;;;;;;5137465;27;19915;-81
2021/12/07 02:26:35;;;;;;;;;;;22.80;36.30;;;;;;5120389;27;19968;-79
2021/12/07 02:29:01;;;;;;;;;;;22.80;36.30;;;;;;5137396;27;19930;-81
2021/12/07 02:31:29;;;;;;;;;;;22.80;36.30;;;;;;5137420;27;19908;-80
2021/12/07 02:33:55;;;;;;;;;;;22.80;36.30;;;;;;5138523;27;20000;-82
2021/12/07 02:36:21;;;;;;;;;;;22.90;36.40;;;;;;5137438;27;20344;-80
2021/12/07 02:38:51;;;;;;;;;;;22.80;36.40;;;;;;5120169;27;20320;-81
2021/12/07 02:41:17;;;;;;;;;;;22.80;36.40;;;;;;5120075;27;20328;-81
2021/12/07 02:43:44;;;;;;;;;;;22.90;36.40;;;;;;5137443;27;19967;-81
2021/12/07 02:46:09;;;;;;;;;;;22.80;36.40;;;;;;5120076;27;20213;-80
2021/12/07 02:48:35;;;;;;;;;;;22.90;36.50;;;;;;5137347;27;19918;-83
2021/12/07 02:51:00;;;;;;;;;;;22.90;36.50;;;;;;5137258;27;19907;-81
2021/12/07 02:53:29;;;;;;;;;;;22.80;36.40;;;;;;5137059;27;19919;-82
2021/12/07 02:55:57;;;;;;;;;;;22.90;36.50;;;;;;5137157;27;19908;-81
2021/12/07 02:58:25;;;;;;;;;;;22.90;36.50;;;;;;5120315;27;19964;-82
2021/12/07 03:01:02;;;;;;;;;;;22.90;36.50;;;;;;5136978;27;19908;-80
2021/12/07 03:03:35;;;;;;;;;;;22.90;36.50;;;;;;5137106;27;19939;-86
2021/12/07 03:27:26;;;;;;;;;;;22.70;36.90;;;;;;5136262;27;20092;-80
2021/12/07 03:29:52;;;;;;;;;;;22.70;36.90;;;;;;5120222;27;19965;-81
2021/12/07 03:32:17;;;;;;;;;;;22.70;36.90;;;;;;5138466;27;19951;-78
2021/12/07 03:34:45;;;;;;;;;;;22.80;37.00;;;;;;5119699;27;19911;-80
2021/12/07 03:37:11;;;;;;;;;;;22.80;37.00;;;;;;5136554;27;19917;-81
2021/12/07 03:39:36;;;;;;;;;;;22.80;37.00;;;;;;5136969;27;20002;-79
2021/12/07 03:42:06;;;;;;;;;;;22.80;37.00;;;;;;5136004;27;20254;-81
2021/12/07 03:44:33;;;;;;;;;;;22.70;37.00;;;;;;5136065;27;19915;-80
2021/12/07 03:47:00;;;;;;;;;;;22.70;37.00;;;;;;5136300;27;19958;-81
2021/12/07 03:49:28;;;;;;;;;;;22.70;37.10;;;;;;5122180;27;19919;-82
2021/12/07 03:51:54;;;;;;;;;;;22.70;37.10;;;;;;5137357;27;19908;-80
2021/12/07 03:54:20;;;;;;;;;;;22.70;37.10;;;;;;5136103;27;19908;-81
2021/12/07 03:56:46;;;;;;;;;;;22.70;37.10;;;;;;5135907;27;19908;-83
2021/12/07 03:59:14;;;;;;;;;;;22.70;37.10;;;;;;5135707;27;20061;-79
2021/12/07 04:01:39;;;;;;;;;;;22.80;37.20;;;;;;5135822;27;19919;-81
2021/12/07 04:04:05;;;;;;;;;;;22.70;37.20;;;;;;5118524;27;19908;-80
2021/12/07 04:06:33;;;;;;;;;;;22.70;37.20;;;;;;5135450;27;20378;-83
2021/12/07 04:08:58;;;;;;;;;;;22.70;37.20;;;;;;5118301;27;19915;-78
2021/12/07 04:11:24;;;;;;;;;;;22.70;37.30;;;;;;5118654;27;19908;-78
2021/12/07 04:13:49;;;;;;;;;;;22.70;37.30;;;;;;5135511;27;19994;-80
2021/12/07 04:16:17;;;;;;;;;;;22.70;37.30;;;;;;5135459;27;20316;-81
2021/12/07 04:18:43;;;;;;;;;;;22.70;37.30;;;;;;5135252;27;19972;-79
2021/12/07 04:21:08;;;;;;;;;;;22.70;37.30;;;;;;5135262;27;20355;-80
2021/12/07 04:23:34;;;;;;;;;;;22.70;37.30;;;;;;5118358;28;19908;-81
2021/12/07 04:26:03;;;;;;;;;;;22.70;37.30;;;;;;5135652;27;19960;-81
2021/12/07 04:28:28;;;;;;;;;;;22.70;37.30;;;;;;5135077;27;19923;-84
2021/12/07 04:30:54;;;;;;;;;;;22.70;37.30;;;;;;5135119;27;20250;-81
2021/12/07 04:33:22;;;;;;;;;;;22.70;37.20;;;;;;5135292;28;19925;-82
2021/12/07 04:35:48;;;;;;;;;;;22.70;37.30;;;;;;5135179;28;19949;-80
2021/12/07 04:38:16;;;;;;;;;;;22.70;37.30;;;;;;5135019;28;19934;-82
2021/12/07 04:40:42;;;;;;;;;;;22.70;37.30;;;;;;5118153;28;19908;-78
2021/12/07 04:43:10;;;;;;;;;;;22.70;37.30;;;;;;5135167;28;20056;-80
2021/12/07 04:48:29;;;;;;;;;;;22.70;37.40;;;;;;5135356;28;19955;-81
2021/12/07 04:59:05;;;;;;;;;;;22.70;37.50;;;;;;5135593;27;19919;-80
2021/12/07 05:01:32;;;;;;;;;;;22.60;37.40;;;;;;5118255;28;19907;-82
2021/12/07 05:04:00;;;;;;;;;;;22.60;37.40;;;;;;5117943;28;19907;-81
2021/12/07 05:06:31;;;;;;;;;;;22.70;37.50;;;;;;5134824;27;19907;-82
2021/12/07 05:09:04;;;;;;;;;;;22.60;37.50;;;;;;5134663;28;19976;-82
2021/12/07 05:12:03;;;;;;;;;;;22.60;37.50;;;;;;5134829;28;19918;-80
2021/12/07 05:14:33;;;;;;;;;;;22.60;37.50;;;;;;5135345;28;19960;-79
2021/12/07 05:38:41;;;;;;;;;;;22.60;37.80;;;;;;5077283;28;19920;-83
2021/12/07 05:41:07;;;;;;;;;;;22.60;37.80;;;;;;5077068;28;19909;-84
2021/12/07 05:43:33;;;;;;;;;;;22.60;37.80;;;;;;5060347;28;19909;-85
2021/12/07 05:45:58;;;;;;;;;;;22.60;37.80;;;;;;5060546;28;19932;-85
2021/12/07 05:48:28;;;;;;;;;;;22.60;37.80;;;;;;5060352;28;19938;-80
2021/12/07 05:50:54;;;;;;;;;;;22.60;37.70;;;;;;5077938;28;19913;-79
2021/12/07 05:53:22;;;;;;;;;;;22.60;37.80;;;;;;5063873;28;19931;-82
2021/12/07 05:55:48;;;;;;;;;;;22.60;37.70;;;;;;5077649;28;20406;-81
2021/12/07 05:58:16;;;;;;;;;;;22.60;37.70;;;;;;5060756;28;19991;-80
2021/12/07 06:00:46;;;;;;;;;;;22.70;37.80;;;;;;5077093;28;20379;-82
2021/12/07 06:03:12;;;;;;;;;;;22.70;37.70;;;;;;5060613;28;19919;-81
2021/12/07 06:05:40;;;;;;;;;;;22.70;37.70;;;;;;5059962;28;19908;-85
2021/12/07 06:08:08;;;;;;;;;;;22.60;37.80;;;;;;5076663;28;20016;-83
2021/12/07 06:10:34;;;;;;;;;;;22.60;37.70;;;;;;5059990;28;20503;-83
2021/12/07 06:12:59;;;;;;;;;;;22.60;37.80;;;;;;5059673;28;20003;-81
2021/12/07 06:15:31;;;;;;;;;;;22.60;37.80;;;;;;5077279;28;19908;-81
2021/12/07 06:17:57;;;;;;;;;;;22.60;37.80;;;;;;5060795;28;20279;-81
2021/12/07 06:20:22;;;;;;;;;;;22.60;37.80;;;;;;5059853;28;20042;-80
2021/12/07 06:22:48;;;;;;;;;;;22.60;37.80;;;;;;5059992;28;19967;-82
2021/12/07 06:25:13;;;;;;;;;;;22.60;37.80;;;;;;5060382;28;19910;-83
2021/12/07 06:27:39;;;;;;;;;;;22.60;37.80;;;;;;5060156;28;19912;-82
2021/12/07 06:30:09;;;;;;;;;;;22.60;37.90;;;;;;5059895;28;20410;-81
2021/12/07 06:32:37;;;;;;;;;;;22.60;37.90;;;;;;5076429;28;19938;-84
2021/12/07 06:35:06;;;;;;;;;;;22.60;37.90;;;;;;5059808;28;19909;-84
2021/12/07 06:37:32;;;;;;;;;;;22.60;37.90;;;;;;5076290;28;19995;-82
2021/12/07 06:39:57;;;;;;;;;;;22.60;37.90;;;;;;5076513;28;19993;-84
2021/12/07 06:42:28;;;;;;;;;;;22.60;37.90;;;;;;5076269;28;20384;-80
2021/12/07 06:44:56;;;;;;;;;;;22.60;38.00;;;;;;5076179;28;19909;-83
2021/12/07 06:47:21;;;;;;;;;;;22.60;38.00;;;;;;5076568;28;19948;-82
2021/12/07 06:49:49;;;;;;;;;;;22.50;38.00;;;;;;5076733;28;20349;-84
2021/12/07 06:52:17;;;;;;;;;;;22.50;38.00;;;;;;5076430;28;19935;-81
2021/12/07 06:54:45;;;;;;;;;;;22.60;38.00;;;;;;5060047;28;19908;-85
2021/12/07 06:57:13;;;;;;;;;;;22.60;38.00;;;;;;5059969;28;19912;-80
2021/12/07 06:59:39;;;;;;;;;;;22.60;38.00;;;;;;5076501;28;19917;-83
2021/12/07 07:02:04;;;;;;;;;;;22.50;38.00;;;;;;5059432;28;19912;-79
2021/12/07 07:04:30;;;;;;;;;;;22.50;38.00;;;;;;5059417;28;19918;-81
2021/12/07 07:06:55;;;;;;;;;;;22.60;38.00;;;;;;5076855;28;20329;-79
2021/12/07 07:09:21;;;;;;;;;;;22.60;38.00;;;;;;5078096;28;20307;-82
2021/12/07 07:11:51;;;;;;;;;;;22.60;38.00;;;;;;5075800;28;19909;-81
2021/12/07 07:14:17;;;;;;;;;;;22.50;38.60;;;;;;5075948;28;19920;-81
2021/12/07 07:16:42;;;;;;;;;;;22.60;38.00;;;;;;5059116;28;19909;-81
2021/12/07 07:19:08;;;;;;;;;;;22.60;38.00;;;;;;5058871;28;19908;-82
2021/12/07 07:21:33;;;;;;;;;;;22.50;38.00;;;;;;5076143;28;19942;-85
2021/12/07 07:23:59;;;;;;;;;;;22.60;38.00;;;;;;5059136;28;20533;-83
2021/12/07 07:26:29;;;;;;;;;;;22.60;38.00;;;;;;5075721;28;20329;-80
2021/12/07 07:28:57;;;;;;;;;;;22.60;38.00;;;;;;5075906;28;19916;-80
2021/12/07 07:31:28;;;;;;;;;;;22.60;38.00;;;;;;5076049;28;19926;-81
2021/12/07 07:33:54;;;;;;;;;;;22.60;38.00;;;;;;5075359;28;19995;-84
2021/12/07 07:36:20;;;;;;;;;;;22.60;38.00;;;;;;5058901;28;19912;-80
2021/12/07 07:38:46;;;;;;;;;;;22.60;38.00;;;;;;5058520;28;19920;-81
2021/12/07 07:41:11;;;;;;;;;;;22.60;37.90;;;;;;5058679;28;19920;-83
2021/12/07 07:43:37;;;;;;;;;;;22.50;38.00;;;;;;5058727;28;20333;-82
2021/12/07 07:46:05;;;;;;;;;;;22.60;38.00;;;;;;5058428;28;20069;-81
2021/12/07 07:48:31;;;;;;;;;;;22.60;38.00;;;;;;5075231;28;19916;-84
2021/12/07 07:50:59;;;;;;;;;;;22.20;34.40;;;;;;5058614;28;19931;-85
2021/12/07 07:53:28;;;;;;;;;;;20.00;33.10;;;;;;5058136;28;20264;-80
2021/12/07 07:55:56;;;;;;;;;;;20.10;36.70;;;;;;5075188;28;19919;-81
2021/12/07 07:58:27;;;;;;;;;;;20.60;37.20;;;;;;5057691;28;19944;-80
2021/12/07 08:00:52;;;;;;;;;;;21.10;37.90;;;;;;5058594;28;19908;-81
2021/12/07 08:03:18;;;;;;;;;;;21.60;47.50;;;;;;5057827;28;19919;-78
2021/12/07 08:05:43;;;;;;;;;;;21.90;48.00;;;;;;5074685;28;20443;-77
2021/12/07 08:08:09;;;;;;;;;;;22.10;48.30;;;;;;5074281;28;20251;-76
2021/12/07 08:10:34;;;;;;;;;;;22.30;47.90;;;;;;5074730;28;19966;-78
2021/12/07 08:13:01;;;;;;;;;;;22.50;47.80;;;;;;5074363;28;19991;-79
2021/12/07 08:15:27;;;;;;;;;;;22.60;47.50;;;;;;5058021;28;19908;-78
2021/12/07 08:17:53;;;;;;;;;;;22.70;47.40;;;;;;5074745;28;19939;-77
2021/12/07 08:20:18;;;;;;;;;;;22.80;46.90;;;;;;5074850;28;19921;-78
2021/12/07 08:22:46;;;;;;;;;;;22.90;46.80;;;;;;5074703;28;19912;-78
2021/12/07 08:25:14;;;;;;;;;;;23.00;46.50;;;;;;5074818;28;19908;-77
2021/12/07 08:27:44;;;;;;;;;;;23.10;46.40;;;;;;5075279;28;19913;-77
2021/12/07 08:30:11;;;;;;;;;;;23.20;46.00;;;;;;5075159;28;19909;-77
2021/12/07 08:32:45;;;;;;;;;;;23.30;45.70;;;;;;5074055;28;19915;-77
2021/12/07 08:35:17;;;;;;;;;;;23.40;45.40;;;;;;5074143;28;20329;-77
2021/12/07 08:37:44;;;;;;;;;;;23.40;45.30;;;;;;5073930;28;20017;-78
2021/12/07 08:40:10;;;;;;;;;;;23.50;45.10;;;;;;5073977;28;19908;-78
2021/12/07 08:42:35;;;;;;;;;;;23.60;45.00;;;;;;5057471;28;19908;-76
2021/12/07 08:45:06;;;;;;;;;;;23.60;44.60;;;;;;5057519;28;19927;-79
2021/12/07 08:47:34;;;;;;;;;;;23.60;44.30;;;;;;5074216;28;20452;-77
2021/12/07 08:49:59;;;;;;;;;;;23.70;44.10;;;;;;5057259;28;19981;-76
2021/12/07 08:52:25;;;;;;;;;;;23.70;43.90;;;;;;5074049;28;19908;-78
2021/12/07 09:00:03;;;;;;;;;;;23.80;43.50;;;;;;5074199;28;19919;-77
2021/12/07 09:02:33;;;;;;;;;;;23.80;43.50;;;;;;5074019;28;19916;-78
2021/12/07 09:05:01;;;;;;;;;;;23.80;43.40;;;;;;5074165;28;19920;-80
2021/12/07 09:07:29;;;;;;;;;;;23.90;43.20;;;;;;5074104;28;19951;-81
2021/12/07 09:09:57;;;;;;;;;;;23.90;43.20;;;;;;5057498;28;20233;-82
2021/12/07 09:12:23;;;;;;;;;;;24.00;43.10;;;;;;5061146;28;19965;-78
2021/12/07 09:14:52;;;;;;;;;;;24.00;42.90;;;;;;5078106;28;19999;-79
2021/12/07 09:17:17;;;;;;;;;;;24.10;42.80;;;;;;5078053;28;19969;-77
2021/12/07 09:19:47;;;;;;;;;;;24.10;42.70;;;;;;5060683;28;20404;-82
2021/12/07 09:22:13;;;;;;;;;;;24.10;41.60;;;;;;5078040;28;20033;-81
2021/12/07 09:24:39;;;;;;;;;;;21.90;35.00;;;;;;5061230;28;20350;-79
2021/12/07 09:27:04;;;;;;;;;;;19.40;38.00;;;;;;5061395;28;19912;-80
2021/12/07 09:29:30;;;;;;;;;;;18.00;44.10;;;;;;5061355;28;20266;-79
2021/12/07 09:31:56;;;;;;;;;;;17.20;43.50;;;;;;5061270;28;19919;-80
2021/12/07 09:34:23;;;;;;;;;;;16.40;44.70;;;;;;5060763;28;19909;-79
2021/12/07 09:36:51;;;;;;;;;;;16.10;46.10;;;;;;5060581;28;19909;-79
2021/12/07 09:39:19;;;;;;;;;;;16.40;54.20;;;;;;5060519;28;19919;-78
2021/12/07 09:41:45;;;;;;;;;;;17.80;52.40;;;;;;5076964;28;19912;-79
2021/12/07 09:44:13;;;;;;;;;;;18.90;50.00;;;;;;5060226;28;20364;-77
2021/12/07 09:46:39;;;;;;;;;;;19.90;48.10;;;;;;5076970;28;19919;-78
2021/12/07 09:49:05;;;;;;;;;;;20.50;46.90;;;;;;5077905;28;19916;-81
2021/12/07 09:51:31;;;;;;;;;;;21.10;46.00;;;;;;5077141;28;19916;-79
2021/12/07 09:53:56;;;;;;;;;;;21.50;45.20;;;;;;5060506;28;19912;-78
2021/12/07 09:56:22;;;;;;;;;;;21.90;45.00;;;;;;5059971;28;20345;-77
2021/12/07 09:58:50;;;;;;;;;;;22.20;44.80;;;;;;5076722;28;19916;-78
2021/12/07 10:01:18;;;;;;;;;;;22.40;44.50;;;;;;5060827;28;19909;-78
2021/12/07 10:03:44;;;;;;;;;;;22.70;44.20;;;;;;5076856;28;19908;-77
2021/12/07 10:06:12;;;;;;;;;;;22.90;44.00;;;;;;5077939;28;19995;-80
2021/12/07 10:08:38;;;;;;;;;;;23.10;43.70;;;;;;5078207;28;20237;-79
2021/12/07 10:11:04;;;;;;;;;;;23.30;43.60;;;;;;5060591;28;19919;-78
2021/12/07 10:13:32;;;;;;;;;;;23.40;43.40;;;;;;5076959;28;19995;-79
2021/12/07 10:16:03;;;;;;;;;;;23.50;43.00;;;;;;5060605;28;19908;-79
2021/12/07 10:18:32;;;;;;;;;;;23.60;42.80;;;;;;5077612;28;19909;-78
2021/12/07 10:21:03;;;;;;;;;;;23.70;42.60;;;;;;5076549;28;19931;-78
2021/12/07 10:23:36;;;;;;;;;;;23.80;42.60;;;;;;5089025;28;19912;-78
2021/12/07 10:26:23;;;;;;;;;;;23.90;42.50;;;;;;5130647;27;20324;-79
2021/12/07 10:29:00;;;;;;;;;;;24.00;42.30;;;;;;5137920;27;19915;-78
2021/12/07 10:31:28;;;;;;;;;;;24.10;42.30;;;;;;5155847;27;19907;-76
2021/12/07 10:33:59;;;;;;;;;;;24.10;42.20;;;;;;5119622;27;20016;-79
2021/12/07 10:36:28;;;;;;;;;;;24.20;42.10;;;;;;5138064;27;20756;-78
2021/12/07 10:38:57;;;;;;;;;;;24.20;42.00;;;;;;5138055;27;19914;-78
2021/12/07 10:41:26;;;;;;;;;;;24.30;41.90;;;;;;5117783;27;19919;-80
2021/12/07 10:43:55;;;;;;;;;;;24.30;41.80;;;;;;5140582;27;20394;-78
2021/12/07 10:46:44;;;;;;;;;;;24.40;41.80;;;;;;5140417;27;20357;-78
2021/12/07 10:49:29;;;;;;;;;;;24.40;41.70;;;;;;5129531;27;19911;-80
2021/12/07 10:52:03;;;;;;;;;;;24.40;41.70;;;;;;5123590;27;19908;-78
2021/12/07 10:54:31;;;;;;;;;;;24.40;41.60;;;;;;5158411;27;19907;-79
2021/12/07 10:56:59;;;;;;;;;;;24.50;41.60;;;;;;5155992;27;20339;-79
2021/12/07 10:59:27;;;;;;;;;;;24.50;41.40;;;;;;5119896;27;19965;-79
2021/12/07 11:01:53;;;;;;;;;;;24.50;41.40;;;;;;5119383;27;19907;-78
2021/12/07 11:04:21;;;;;;;;;;;24.60;41.60;;;;;;5119461;27;20300;-77
2021/12/07 11:07:02;;;;;;;;;;;24.60;41.40;;;;;;5119417;27;19907;-77
2021/12/07 11:09:30;;;;;;;;;;;24.60;41.40;;;;;;5137393;27;19911;-78
2021/12/07 11:12:08;;;;;;;;;;;24.70;41.30;;;;;;5102880;27;19911;-78
2021/12/07 11:14:52;;;;;;;;;;;24.70;41.20;;;;;;5119699;27;19908;-81
2021/12/07 11:17:18;;;;;;;;;;;24.70;41.20;;;;;;5120650;27;19977;-78
2021/12/07 11:19:44;;;;;;;;;;;24.70;41.20;;;;;;5101890;27;19915;-79
2021/12/07 11:22:14;;;;;;;;;;;24.70;41.10;;;;;;5119048;27;19976;-80
2021/12/07 11:24:43;;;;;;;;;;;24.70;41.00;;;;;;5137143;27;19907;-78
2021/12/07 11:29:57;;;;;;;;;;;24.80;40.90;;;;;;5121997;27;20349;-79
2021/12/07 11:32:22;;;;;;;;;;;24.80;40.80;;;;;;5102109;27;19946;-79
2021/12/07 11:34:50;;;;;;;;;;;24.80;40.80;;;;;;5118787;27;19926;-78
2021/12/07 11:37:22;;;;;;;;;;;24.90;41.40;;;;;;5102441;27;19907;-79
2021/12/07 11:39:52;;;;;;;;;;;24.80;40.80;;;;;;5119997;27;19908;-78
2021/12/07 11:42:20;;;;;;;;;;;24.80;40.60;;;;;;5136687;27;19963;-77
2021/12/07 11:44:52;;;;;;;;;;;24.90;40.60;;;;;;5136700;27;20387;-78
2021/12/07 11:47:25;;;;;;;;;;;24.90;40.40;;;;;;5136840;27;19961;-79
2021/12/07 11:49:53;;;;;;;;;;;24.90;40.70;;;;;;5117873;27;19958;-78
2021/12/07 11:52:21;;;;;;;;;;;24.90;40.60;;;;;;5101410;27;19907;-79
2021/12/07 11:54:47;;;;;;;;;;;24.90;40.60;;;;;;5101472;27;19907;-79
2021/12/07 11:57:13;;;;;;;;;;;24.80;40.50;;;;;;5118636;27;19935;-80
2021/12/07 11:59:39;;;;;;;;;;;24.90;40.30;;;;;;5118968;27;19908;-81
2021/12/07 12:02:07;;;;;;;;;;;24.90;40.20;;;;;;5118921;27;20381;-79
2021/12/07 12:04:35;;;;;;;;;;;24.90;40.10;;;;;;5118607;27;20339;-81
2021/12/07 12:07:00;;;;;;;;;;;24.90;40.10;;;;;;5101646;27;19907;-80
2021/12/07 12:09:26;;;;;;;;;;;24.80;40.10;;;;;;5118923;27;20221;-79
2021/12/07 12:11:58;;;;;;;;;;;24.80;40.10;;;;;;5102004;27;19965;-78
2021/12/07 12:14:41;;;;;;;;;;;24.80;40.10;;;;;;5136980;27;19907;-78
2021/12/07 12:17:15;;;;;;;;;;;24.80;40.20;;;;;;5102053;27;19907;-79
2021/12/07 12:19:42;;;;;;;;;;;24.80;40.10;;;;;;5102005;27;19919;-80
2021/12/07 12:22:27;;;;;;;;;;;24.70;40.20;;;;;;5103398;28;20344;-79
2021/12/07 12:24:53;;;;;;;;;;;24.70;40.10;;;;;;5124323;27;19908;-78
2021/12/07 12:27:20;;;;;;;;;;;24.70;40.00;;;;;;5106858;28;20231;-79
2021/12/07 12:29:46;;;;;;;;;;;24.70;40.00;;;;;;5123911;27;19920;-76
2021/12/07 12:32:12;;;;;;;;;;;24.70;40.10;;;;;;5105161;28;19918;-81
2021/12/07 12:34:38;;;;;;;;;;;24.60;39.90;;;;;;5118752;28;19907;-77
2021/12/07 12:37:15;;;;;;;;;;;24.60;40.10;;;;;;5101809;28;20212;-80
2021/12/07 12:39:44;;;;;;;;;;;24.60;40.00;;;;;;5118628;28;19990;-78
2021/12/07 12:42:10;;;;;;;;;;;24.60;40.10;;;;;;5118629;28;19908;-79
2021/12/07 12:44:36;;;;;;;;;;;24.60;39.90;;;;;;5102960;27;19919;-78
2021/12/07 12:47:01;;;;;;;;;;;24.60;40.10;;;;;;5122567;27;20282;-80
2021/12/07 12:49:37;;;;;;;;;;;24.70;40.00;;;;;;5122481;27;19912;-78
2021/12/07 12:52:05;;;;;;;;;;;24.60;40.00;;;;;;5122442;27;19994;-79
2021/12/07 12:54:57;;;;;;;;;;;24.60;40.00;;;;;;5106055;27;19908;-79
2021/12/07 12:57:25;;;;;;;;;;;24.60;40.00;;;;;;5117813;27;19907;-81
2021/12/07 12:59:51;;;;;;;;;;;24.60;40.00;;;;;;5122928;27;19911;-80
2021/12/07 13:02:18;;;;;;;;;;;24.60;40.20;;;;;;5122195;27;19907;-79
2021/12/07 13:04:46;;;;;;;;;;;24.60;41.00;;;;;;5122209;27;19908;-78
2021/12/07 13:07:26;;;;;;;;;;;24.70;40.70;;;;;;5122191;27;19907;-79
2021/12/07 13:09:55;;;;;;;;;;;24.70;40.90;;;;;;5122338;27;19911;-77
2021/12/07 13:12:25;;;;;;;;;;;24.70;41.00;;;;;;5121689;27;19907;-79
2021/12/07 13:14:51;;;;;;;;;;;24.80;41.00;;;;;;5121767;27;20256;-79
2021/12/07 13:17:21;;;;;;;;;;;24.80;41.00;;;;;;5139754;27;19907;-78
2021/12/07 13:20:08;;;;;;;;;;;24.80;41.00;;;;;;5104850;27;19915;-78
2021/12/07 13:22:47;;;;;;;;;;;24.90;41.00;;;;;;5122022;27;19908;-78
2021/12/07 13:25:18;;;;;;;;;;;24.90;41.00;;;;;;5122718;27;19907;-78
2021/12/07 13:28:06;;;;;;;;;;;25.00;40.90;;;;;;5139808;27;19965;-78
2021/12/07 13:30:44;;;;;;;;;;;25.00;41.00;;;;;;5139788;27;20360;-77
2021/12/07 13:33:15;;;;;;;;;;;25.00;41.00;;;;;;5139908;27;20328;-77
2021/12/07 13:35:41;;;;;;;;;;;25.00;41.00;;;;;;5121323;27;19931;-77
2021/12/07 13:38:20;;;;;;;;;;;25.00;40.90;;;;;;5121293;27;20340;-78
2021/12/07 13:40:46;;;;;;;;;;;25.00;40.70;;;;;;5104192;27;19946;-73
2021/12/07 13:43:29;;;;;;;;;;;23.90;30.20;;;;;;5121447;27;19908;-78
2021/12/07 13:46:14;;;;;;;;;;;23.30;31.70;;;;;;5121361;27;19912;-77
2021/12/07 13:48:42;;;;;;;;;;;23.20;30.30;;;;;;5138959;27;19912;-77
2021/12/07 13:51:08;;;;;;;;;;;23.20;30.50;;;;;;5121122;27;19981;-79
2021/12/07 13:53:35;;;;;;;;;;;23.10;30.00;;;;;;5103674;27;19907;-78
2021/12/07 13:56:03;;;;;;;;;;;23.20;32.70;;;;;;5103197;27;19907;-77
2021/12/07 13:58:33;;;;;;;;;;;23.50;33.70;;;;;;5107175;27;20002;-79
2021/12/07 14:01:00;;;;;;;;;;;23.60;33.70;;;;;;5123590;27;19907;-79
2021/12/07 14:03:25;;;;;;;;;;;23.80;33.90;;;;;;5104596;27;19911;-76
2021/12/07 14:05:53;;;;;;;;;;;23.90;34.10;;;;;;5121369;27;20359;-81
2021/12/07 14:08:19;;;;;;;;;;;24.00;34.20;;;;;;5104127;27;19918;-78
2021/12/07 14:10:47;;;;;;;;;;;24.10;34.30;;;;;;5122016;27;19911;-78
2021/12/07 14:13:13;;;;;;;;;;;24.20;34.40;;;;;;5104230;27;19907;-79
2021/12/07 14:15:42;;;;;;;;;;;24.20;34.60;;;;;;5121676;27;19913;-78
2021/12/07 14:18:11;;;;;;;;;;;24.30;34.80;;;;;;5121058;27;19938;-77
2021/12/07 14:20:37;;;;;;;;;;;24.40;35.00;;;;;;5138340;27;19925;-77
2021/12/07 14:23:32;;;;;;;;;;;24.40;35.00;;;;;;5138608;27;19994;-78
2021/12/07 14:25:57;;;;;;;;;;;24.40;35.10;;;;;;5120509;27;19908;-79
2021/12/07 14:28:25;;;;;;;;;;;24.50;35.20;;;;;;5138134;27;19915;-77
2021/12/07 14:30:51;;;;;;;;;;;24.50;35.40;;;;;;5120573;27;19908;-78
2021/12/07 14:33:19;;;;;;;;;;;24.60;35.40;;;;;;5120514;27;19914;-78
2021/12/07 14:35:44;;;;;;;;;;;24.60;35.60;;;;;;5120935;27;19908;-78
2021/12/07 14:38:10;;;;;;;;;;;24.70;35.70;;;;;;5103766;27;19994;-77
2021/12/07 14:40:38;;;;;;;;;;;24.70;35.80;;;;;;5138572;27;20243;-79
2021/12/07 14:43:03;;;;;;;;;;;24.70;35.90;;;;;;5120929;27;20256;-77
2021/12/07 14:45:29;;;;;;;;;;;24.80;35.90;;;;;;5120180;27;20386;-77
2021/12/07 14:47:58;;;;;;;;;;;24.90;35.90;;;;;;5120312;27;20325;-78
2021/12/07 14:50:28;;;;;;;;;;;24.90;35.90;;;;;;5137552;27;20048;-78
2021/12/07 14:52:54;;;;;;;;;;;24.90;36.00;;;;;;5120183;27;19915;-78
2021/12/07 14:55:19;;;;;;;;;;;24.90;36.00;;;;;;5119870;27;19915;-78
2021/12/07 14:57:45;;;;;;;;;;;25.00;36.20;;;;;;5119514;27;19921;-77
2021/12/07 15:00:11;;;;;;;;;;;25.00;36.10;;;;;;5137602;27;20271;-80
2021/12/07 15:02:39;;;;;;;;;;;25.00;36.10;;;;;;5119811;27;20315;-77
2021/12/07 15:05:07;;;;;;;;;;;25.10;36.20;;;;;;5103423;27;19937;-77
2021/12/07 15:07:33;;;;;;;;;;;25.10;36.40;;;;;;5101968;28;20320;-80
2021/12/07 15:09:59;;;;;;;;;;;25.10;36.60;;;;;;5102986;27;20340;-78
2021/12/07 15:12:25;;;;;;;;;;;25.10;36.60;;;;;;5103169;27;20362;-81
2021/12/07 15:14:58;;;;;;;;;;;25.00;36.70;;;;;;5120109;27;19907;-79
2021/12/07 15:17:23;;;;;;;;;;;25.10;36.70;;;;;;5120120;27;19907;-80
2021/12/07 15:19:49;;;;;;;;;;;25.10;36.70;;;;;;5102771;27;19919;-79
2021/12/07 15:22:17;;;;;;;;;;;25.10;36.90;;;;;;5103133;27;19908;-79
2021/12/07 15:24:45;;;;;;;;;;;25.10;37.00;;;;;;5120866;27;19964;-77
2021/12/07 15:27:13;;;;;;;;;;;25.10;37.00;;;;;;5137258;27;19907;-78
2021/12/07 15:29:41;;;;;;;;;;;25.10;37.10;;;;;;5101129;27;19916;-81
2021/12/07 15:32:11;;;;;;;;;;;25.20;37.10;;;;;;5102247;27;19907;-76
2021/12/07 15:34:40;;;;;;;;;;;25.20;37.10;;;;;;5102134;27;20318;-78
2021/12/07 15:37:15;;;;;;;;;;;25.20;37.10;;;;;;5101797;27;19922;-78
2021/12/07 15:39:43;;;;;;;;;;;25.30;37.10;;;;;;5102456;27;20322;-80
2021/12/07 15:42:18;;;;;;;;;;;25.30;37.10;;;;;;5118780;27;20248;-79
2021/12/07 15:44:52;;;;;;;;;;;25.30;37.00;;;;;;5119081;27;19907;-79
2021/12/07 15:47:20;;;;;;;;;;;25.30;37.00;;;;;;5102596;27;20299;-78
2021/12/07 15:49:49;;;;;;;;;;;25.30;37.00;;;;;;5118961;27;20316;-79
2021/12/07 15:52:18;;;;;;;;;;;25.40;36.80;;;;;;5119078;27;19911;-79
2021/12/07 15:54:54;;;;;;;;;;;25.40;36.70;;;;;;5102570;27;19911;-77
2021/12/07 15:57:19;;;;;;;;;;;25.40;36.70;;;;;;5102093;27;19918;-76
2021/12/07 15:59:53;;;;;;;;;;;25.40;36.60;;;;;;5118770;27;20013;-78
2021/12/07 16:02:20;;;;;;;;;;;25.40;36.60;;;;;;5101438;27;19908;-76
2021/12/07 16:04:46;;;;;;;;;;;25.40;36.60;;;;;;5136615;27;19964;-77
2021/12/07 16:07:18;;;;;;;;;;;25.40;36.60;;;;;;5118680;27;19911;-78
2021/12/07 16:09:46;;;;;;;;;;;25.40;36.60;;;;;;5136656;27;19912;-79
2021/12/07 16:12:12;;;;;;;;;;;25.40;36.60;;;;;;5118890;27;20307;-77